sensor_id;sensor_type;location;lat;lon;timestamp;P1;durP1;ratioP1;P2;durP2;ratioP2
11747;SDS011;5931;48.832;9.072;2024-02-26T00:01:38;5.27;;;2.90;;
11747;SDS011;5931;48.832;9.072;2024-02-26T00:04:04;5.67;;;3.07;;
11747;SDS011;5931;48.832;9.072;2024-02-26T00:06:30;4.70;;;3.60;;
11747;SDS011;5931;48.832;9.072;2024-02-26T00:08:56;6.30;;;3.40;;
11747;SDS011;5931;48.832;9.072;2024-02-26T00:11:22;5.90;;;2.90;;
11747;SDS011;5931;48.832;9.072;2024-02-26T00:13:48;7.00;;;4.23;;
11747;SDS011;5931;48.832;9.072;2024-02-26T00:16:13;5.10;;;3.40;;
11747;SDS011;5931;48.832;9.072;2024-02-26T00:18:39;6.27;;;3.67;;
11747;SDS011;5931;48.832;9.072;2024-02-26T00:21:05;6.13;;;3.77;;
11747;SDS011;5931;48.832;9.072;2024-02-26T00:23:31;4.70;;;3.90;;
11747;SDS011;5931;48.832;9.072;2024-02-26T00:25:57;5.57;;;3.53;;
11747;SDS011;5931;48.832;9.072;2024-02-26T00:28:23;4.83;;;3.33;;
11747;SDS011;5931;48.832;9.072;2024-02-26T00:30:50;4.60;;;3.40;;
11747;SDS011;5931;48.832;9.072;2024-02-26T00:33:20;14.00;;;3.93;;
11747;SDS011;5931;48.832;9.072;2024-02-26T00:35:46;4.47;;;3.33;;
11747;SDS011;5931;48.832;9.072;2024-02-26T00:38:12;4.90;;;3.43;;
11747;SDS011;5931;48.832;9.072;2024-02-26T00:40:38;6.80;;;3.83;;
11747;SDS011;5931;48.832;9.072;2024-02-26T00:43:04;4.23;;;2.87;;
11747;SDS011;5931;48.832;9.072;2024-02-26T00:45:30;5.10;;;3.60;;
11747;SDS011;5931;48.832;9.072;2024-02-26T00:47:57;5.27;;;3.50;;
11747;SDS011;5931;48.832;9.072;2024-02-26T00:50:23;5.53;;;3.70;;
11747;SDS011;5931;48.832;9.072;2024-02-26T00:52:49;4.33;;;3.10;;
11747;SDS011;5931;48.832;9.072;2024-02-26T00:55:15;5.90;;;3.40;;
11747;SDS011;5931;48.832;9.072;2024-02-26T00:57:41;3.83;;;3.00;;
11747;SDS011;5931;48.832;9.072;2024-02-26T01:00:07;5.77;;;3.37;;
11747;SDS011;5931;48.832;9.072;2024-02-26T01:02:36;7.47;;;3.90;;
11747;SDS011;5931;48.832;9.072;2024-02-26T01:05:03;4.77;;;3.27;;
11747;SDS011;5931;48.832;9.072;2024-02-26T01:07:31;3.90;;;3.13;;
11747;SDS011;5931;48.832;9.072;2024-02-26T01:10:03;8.60;;;4.07;;
11747;SDS011;5931;48.832;9.072;2024-02-26T01:12:31;5.60;;;3.00;;
11747;SDS011;5931;48.832;9.072;2024-02-26T01:15:01;6.97;;;3.90;;
11747;SDS011;5931;48.832;9.072;2024-02-26T01:17:28;3.73;;;3.20;;
11747;SDS011;5931;48.832;9.072;2024-02-26T01:19:54;3.83;;;3.13;;
11747;SDS011;5931;48.832;9.072;2024-02-26T01:22:19;5.77;;;3.37;;
11747;SDS011;5931;48.832;9.072;2024-02-26T01:24:45;5.73;;;4.23;;
11747;SDS011;5931;48.832;9.072;2024-02-26T01:27:11;6.43;;;3.43;;
11747;SDS011;5931;48.832;9.072;2024-02-26T01:29:37;4.37;;;3.30;;
11747;SDS011;5931;48.832;9.072;2024-02-26T01:32:04;5.30;;;2.93;;
11747;SDS011;5931;48.832;9.072;2024-02-26T01:34:31;4.10;;;3.10;;
11747;SDS011;5931;48.832;9.072;2024-02-26T01:36:57;5.07;;;3.37;;
11747;SDS011;5931;48.832;9.072;2024-02-26T01:39:22;5.83;;;3.53;;
11747;SDS011;5931;48.832;9.072;2024-02-26T01:41:48;5.63;;;3.00;;
11747;SDS011;5931;48.832;9.072;2024-02-26T01:44:14;4.20;;;3.23;;
11747;SDS011;5931;48.832;9.072;2024-02-26T01:46:40;4.37;;;3.27;;
11747;SDS011;5931;48.832;9.072;2024-02-26T01:49:06;4.60;;;2.93;;
11747;SDS011;5931;48.832;9.072;2024-02-26T01:51:37;3.67;;;3.23;;
11747;SDS011;5931;48.832;9.072;2024-02-26T01:54:05;6.23;;;3.13;;
11747;SDS011;5931;48.832;9.072;2024-02-26T01:56:33;4.90;;;3.23;;
11747;SDS011;5931;48.832;9.072;2024-02-26T01:59:00;4.13;;;2.20;;
11747;SDS011;5931;48.832;9.072;2024-02-26T02:01:27;4.57;;;2.60;;
11747;SDS011;5931;48.832;9.072;2024-02-26T02:03:56;3.13;;;2.57;;
11747;SDS011;5931;48.832;9.072;2024-02-26T02:06:24;3.93;;;2.33;;
11747;SDS011;5931;48.832;9.072;2024-02-26T02:08:52;4.43;;;2.80;;
11747;SDS011;5931;48.832;9.072;2024-02-26T02:11:19;5.00;;;3.37;;
11747;SDS011;5931;48.832;9.072;2024-02-26T02:13:44;8.63;;;2.87;;
11747;SDS011;5931;48.832;9.072;2024-02-26T02:16:10;3.93;;;2.50;;
11747;SDS011;5931;48.832;9.072;2024-02-26T02:18:36;5.40;;;3.23;;
11747;SDS011;5931;48.832;9.072;2024-02-26T02:21:02;3.90;;;3.23;;
11747;SDS011;5931;48.832;9.072;2024-02-26T02:23:28;4.33;;;2.90;;
11747;SDS011;5931;48.832;9.072;2024-02-26T02:25:54;4.33;;;2.80;;
11747;SDS011;5931;48.832;9.072;2024-02-26T02:28:23;4.20;;;3.03;;
11747;SDS011;5931;48.832;9.072;2024-02-26T02:30:50;6.27;;;3.30;;
11747;SDS011;5931;48.832;9.072;2024-02-26T02:33:16;3.80;;;2.60;;
11747;SDS011;5931;48.832;9.072;2024-02-26T02:35:42;2.97;;;2.67;;
11747;SDS011;5931;48.832;9.072;2024-02-26T02:38:08;3.10;;;2.50;;
11747;SDS011;5931;48.832;9.072;2024-02-26T02:40:34;4.83;;;3.00;;
11747;SDS011;5931;48.832;9.072;2024-02-26T02:43:00;4.07;;;2.90;;
11747;SDS011;5931;48.832;9.072;2024-02-26T02:45:27;4.87;;;3.10;;
11747;SDS011;5931;48.832;9.072;2024-02-26T02:47:53;3.57;;;2.67;;
11747;SDS011;5931;48.832;9.072;2024-02-26T02:50:19;3.87;;;2.90;;
11747;SDS011;5931;48.832;9.072;2024-02-26T02:52:45;3.67;;;3.20;;
11747;SDS011;5931;48.832;9.072;2024-02-26T02:55:11;5.83;;;3.37;;
11747;SDS011;5931;48.832;9.072;2024-02-26T02:57:37;4.50;;;2.63;;
11747;SDS011;5931;48.832;9.072;2024-02-26T03:00:07;5.37;;;3.33;;
11747;SDS011;5931;48.832;9.072;2024-02-26T03:02:34;3.50;;;2.73;;
11747;SDS011;5931;48.832;9.072;2024-02-26T03:05:04;6.43;;;2.50;;
11747;SDS011;5931;48.832;9.072;2024-02-26T03:07:30;3.93;;;2.83;;
11747;SDS011;5931;48.832;9.072;2024-02-26T03:09:56;6.63;;;3.30;;
11747;SDS011;5931;48.832;9.072;2024-02-26T03:12:22;3.67;;;3.20;;
11747;SDS011;5931;48.832;9.072;2024-02-26T03:14:48;3.60;;;2.53;;
11747;SDS011;5931;48.832;9.072;2024-02-26T03:17:14;5.47;;;2.97;;
11747;SDS011;5931;48.832;9.072;2024-02-26T03:19:40;3.90;;;2.60;;
11747;SDS011;5931;48.832;9.072;2024-02-26T03:22:05;3.30;;;2.57;;
11747;SDS011;5931;48.832;9.072;2024-02-26T03:24:32;4.80;;;3.10;;
11747;SDS011;5931;48.832;9.072;2024-02-26T03:26:57;3.50;;;2.50;;
11747;SDS011;5931;48.832;9.072;2024-02-26T03:29:23;3.13;;;2.67;;
11747;SDS011;5931;48.832;9.072;2024-02-26T03:31:49;5.27;;;2.50;;
11747;SDS011;5931;48.832;9.072;2024-02-26T03:34:15;4.47;;;2.57;;
11747;SDS011;5931;48.832;9.072;2024-02-26T03:36:42;6.33;;;2.60;;
11747;SDS011;5931;48.832;9.072;2024-02-26T03:39:08;3.70;;;2.53;;
11747;SDS011;5931;48.832;9.072;2024-02-26T03:41:34;3.53;;;2.40;;
11747;SDS011;5931;48.832;9.072;2024-02-26T03:44:00;6.37;;;2.50;;
11747;SDS011;5931;48.832;9.072;2024-02-26T03:46:26;2.93;;;2.60;;
11747;SDS011;5931;48.832;9.072;2024-02-26T03:48:52;3.30;;;2.10;;
11747;SDS011;5931;48.832;9.072;2024-02-26T03:51:18;3.70;;;2.33;;
11747;SDS011;5931;48.832;9.072;2024-02-26T03:53:44;6.27;;;2.93;;
11747;SDS011;5931;48.832;9.072;2024-02-26T03:56:11;4.20;;;3.80;;
11747;SDS011;5931;48.832;9.072;2024-02-26T03:58:38;3.47;;;3.17;;
11747;SDS011;5931;48.832;9.072;2024-02-26T04:01:04;3.97;;;2.80;;
11747;SDS011;5931;48.832;9.072;2024-02-26T04:03:33;2.93;;;2.43;;
11747;SDS011;5931;48.832;9.072;2024-02-26T04:05:59;2.83;;;2.33;;
11747;SDS011;5931;48.832;9.072;2024-02-26T04:08:25;4.43;;;2.80;;
11747;SDS011;5931;48.832;9.072;2024-02-26T04:10:50;3.10;;;2.10;;
11747;SDS011;5931;48.832;9.072;2024-02-26T04:13:16;2.27;;;1.90;;
11747;SDS011;5931;48.832;9.072;2024-02-26T04:15:42;3.53;;;2.33;;
11747;SDS011;5931;48.832;9.072;2024-02-26T04:18:08;4.00;;;2.30;;
11747;SDS011;5931;48.832;9.072;2024-02-26T04:20:34;2.33;;;2.13;;
11747;SDS011;5931;48.832;9.072;2024-02-26T04:23:00;4.43;;;2.00;;
11747;SDS011;5931;48.832;9.072;2024-02-26T04:25:25;2.90;;;2.10;;
11747;SDS011;5931;48.832;9.072;2024-02-26T04:27:52;3.30;;;2.30;;
11747;SDS011;5931;48.832;9.072;2024-02-26T04:30:17;4.30;;;1.93;;
11747;SDS011;5931;48.832;9.072;2024-02-26T04:32:43;3.10;;;1.67;;
11747;SDS011;5931;48.832;9.072;2024-02-26T04:35:09;2.47;;;1.97;;
11747;SDS011;5931;48.832;9.072;2024-02-26T04:37:35;2.90;;;2.10;;
11747;SDS011;5931;48.832;9.072;2024-02-26T04:40:01;4.00;;;1.93;;
11747;SDS011;5931;48.832;9.072;2024-02-26T04:42:28;4.03;;;2.10;;
11747;SDS011;5931;48.832;9.072;2024-02-26T04:44:54;2.80;;;1.97;;
11747;SDS011;5931;48.832;9.072;2024-02-26T04:47:20;4.53;;;1.80;;
11747;SDS011;5931;48.832;9.072;2024-02-26T04:49:48;2.73;;;2.33;;
11747;SDS011;5931;48.832;9.072;2024-02-26T04:52:15;2.70;;;2.10;;
11747;SDS011;5931;48.832;9.072;2024-02-26T04:54:40;3.10;;;1.77;;
11747;SDS011;5931;48.832;9.072;2024-02-26T04:57:06;2.70;;;1.70;;
11747;SDS011;5931;48.832;9.072;2024-02-26T04:59:32;3.73;;;2.30;;
11747;SDS011;5931;48.832;9.072;2024-02-26T05:01:58;2.73;;;2.17;;
11747;SDS011;5931;48.832;9.072;2024-02-26T05:04:24;2.70;;;2.00;;
11747;SDS011;5931;48.832;9.072;2024-02-26T05:06:49;2.83;;;1.90;;
11747;SDS011;5931;48.832;9.072;2024-02-26T05:09:15;2.00;;;1.80;;
11747;SDS011;5931;48.832;9.072;2024-02-26T05:11:41;3.00;;;1.80;;
11747;SDS011;5931;48.832;9.072;2024-02-26T05:14:07;2.20;;;1.70;;
11747;SDS011;5931;48.832;9.072;2024-02-26T05:16:33;3.37;;;1.97;;
11747;SDS011;5931;48.832;9.072;2024-02-26T05:18:59;2.87;;;2.17;;
11747;SDS011;5931;48.832;9.072;2024-02-26T05:21:25;2.77;;;2.10;;
11747;SDS011;5931;48.832;9.072;2024-02-26T05:23:50;3.27;;;1.90;;
11747;SDS011;5931;48.832;9.072;2024-02-26T05:26:20;3.93;;;2.10;;
11747;SDS011;5931;48.832;9.072;2024-02-26T05:28:49;2.60;;;2.10;;
11747;SDS011;5931;48.832;9.072;2024-02-26T05:31:16;3.00;;;2.23;;
11747;SDS011;5931;48.832;9.072;2024-02-26T05:33:42;3.53;;;2.20;;
11747;SDS011;5931;48.832;9.072;2024-02-26T05:36:07;6.20;;;3.37;;
11747;SDS011;5931;48.832;9.072;2024-02-26T05:38:33;7.13;;;2.80;;
11747;SDS011;5931;48.832;9.072;2024-02-26T05:40:59;5.60;;;3.47;;
11747;SDS011;5931;48.832;9.072;2024-02-26T05:43:25;4.00;;;2.43;;
11747;SDS011;5931;48.832;9.072;2024-02-26T05:45:52;3.07;;;2.33;;
11747;SDS011;5931;48.832;9.072;2024-02-26T05:48:18;3.00;;;2.20;;
11747;SDS011;5931;48.832;9.072;2024-02-26T05:50:44;3.13;;;2.30;;
11747;SDS011;5931;48.832;9.072;2024-02-26T05:53:11;2.70;;;2.20;;
11747;SDS011;5931;48.832;9.072;2024-02-26T05:55:36;4.17;;;2.47;;
11747;SDS011;5931;48.832;9.072;2024-02-26T05:58:02;6.93;;;3.00;;
11747;SDS011;5931;48.832;9.072;2024-02-26T06:00:29;2.23;;;2.03;;
11747;SDS011;5931;48.832;9.072;2024-02-26T06:02:55;2.70;;;1.90;;
11747;SDS011;5931;48.832;9.072;2024-02-26T06:05:21;3.37;;;3.03;;
11747;SDS011;5931;48.832;9.072;2024-02-26T06:07:46;3.57;;;2.77;;
11747;SDS011;5931;48.832;9.072;2024-02-26T06:10:12;3.47;;;2.83;;
11747;SDS011;5931;48.832;9.072;2024-02-26T06:12:41;3.93;;;3.33;;
11747;SDS011;5931;48.832;9.072;2024-02-26T06:15:07;3.50;;;2.73;;
11747;SDS011;5931;48.832;9.072;2024-02-26T06:17:33;4.60;;;2.77;;
11747;SDS011;5931;48.832;9.072;2024-02-26T06:19:59;2.73;;;2.43;;
11747;SDS011;5931;48.832;9.072;2024-02-26T06:22:26;5.00;;;2.90;;
11747;SDS011;5931;48.832;9.072;2024-02-26T06:24:52;3.40;;;2.60;;
11747;SDS011;5931;48.832;9.072;2024-02-26T06:27:18;2.47;;;2.27;;
11747;SDS011;5931;48.832;9.072;2024-02-26T06:29:43;8.13;;;2.80;;
11747;SDS011;5931;48.832;9.072;2024-02-26T06:32:09;3.87;;;2.63;;
11747;SDS011;5931;48.832;9.072;2024-02-26T06:34:35;3.77;;;2.30;;
11747;SDS011;5931;48.832;9.072;2024-02-26T06:37:03;4.70;;;2.67;;
11747;SDS011;5931;48.832;9.072;2024-02-26T06:39:29;5.30;;;3.20;;
11747;SDS011;5931;48.832;9.072;2024-02-26T06:41:55;2.60;;;2.40;;
11747;SDS011;5931;48.832;9.072;2024-02-26T06:44:25;6.40;;;3.63;;
11747;SDS011;5931;48.832;9.072;2024-02-26T06:46:57;3.13;;;2.43;;
11747;SDS011;5931;48.832;9.072;2024-02-26T06:49:24;5.33;;;2.80;;
11747;SDS011;5931;48.832;9.072;2024-02-26T06:51:50;5.87;;;2.67;;
11747;SDS011;5931;48.832;9.072;2024-02-26T06:54:16;4.20;;;2.90;;
11747;SDS011;5931;48.832;9.072;2024-02-26T06:56:41;8.77;;;3.40;;
11747;SDS011;5931;48.832;9.072;2024-02-26T06:59:07;4.30;;;3.20;;
11747;SDS011;5931;48.832;9.072;2024-02-26T07:01:33;5.67;;;4.00;;
11747;SDS011;5931;48.832;9.072;2024-02-26T07:03:59;5.37;;;4.20;;
11747;SDS011;5931;48.832;9.072;2024-02-26T07:06:26;5.70;;;3.50;;
11747;SDS011;5931;48.832;9.072;2024-02-26T07:08:52;5.23;;;3.60;;
11747;SDS011;5931;48.832;9.072;2024-02-26T07:11:19;7.73;;;5.33;;
11747;SDS011;5931;48.832;9.072;2024-02-26T07:13:45;7.40;;;5.50;;
11747;SDS011;5931;48.832;9.072;2024-02-26T07:16:11;5.93;;;4.40;;
11747;SDS011;5931;48.832;9.072;2024-02-26T07:18:38;9.63;;;4.87;;
11747;SDS011;5931;48.832;9.072;2024-02-26T07:21:04;6.77;;;3.93;;
11747;SDS011;5931;48.832;9.072;2024-02-26T07:23:30;5.75;;;4.03;;
11747;SDS011;5931;48.832;9.072;2024-02-26T07:25:56;6.30;;;3.93;;
11747;SDS011;5931;48.832;9.072;2024-02-26T07:28:23;4.40;;;3.27;;
11747;SDS011;5931;48.832;9.072;2024-02-26T07:30:49;4.40;;;2.90;;
11747;SDS011;5931;48.832;9.072;2024-02-26T07:33:15;4.13;;;3.10;;
11747;SDS011;5931;48.832;9.072;2024-02-26T07:35:41;5.57;;;3.00;;
11747;SDS011;5931;48.832;9.072;2024-02-26T07:38:06;3.30;;;2.97;;
11747;SDS011;5931;48.832;9.072;2024-02-26T07:40:32;3.43;;;2.70;;
11747;SDS011;5931;48.832;9.072;2024-02-26T07:42:58;4.13;;;3.00;;
11747;SDS011;5931;48.832;9.072;2024-02-26T07:45:24;3.93;;;2.87;;
11747;SDS011;5931;48.832;9.072;2024-02-26T07:47:50;2.93;;;2.50;;
11747;SDS011;5931;48.832;9.072;2024-02-26T07:50:17;5.80;;;3.13;;
11747;SDS011;5931;48.832;9.072;2024-02-26T07:52:44;4.17;;;2.83;;
11747;SDS011;5931;48.832;9.072;2024-02-26T07:55:10;3.50;;;2.27;;
11747;SDS011;5931;48.832;9.072;2024-02-26T07:57:36;4.87;;;2.93;;
11747;SDS011;5931;48.832;9.072;2024-02-26T08:00:02;4.40;;;2.80;;
11747;SDS011;5931;48.832;9.072;2024-02-26T08:02:30;4.47;;;2.43;;
11747;SDS011;5931;48.832;9.072;2024-02-26T08:04:55;2.67;;;2.40;;
11747;SDS011;5931;48.832;9.072;2024-02-26T08:07:21;4.13;;;2.73;;
11747;SDS011;5931;48.832;9.072;2024-02-26T08:09:47;6.53;;;2.40;;
11747;SDS011;5931;48.832;9.072;2024-02-26T08:12:13;2.70;;;2.37;;
11747;SDS011;5931;48.832;9.072;2024-02-26T08:14:39;3.77;;;2.47;;
11747;SDS011;5931;48.832;9.072;2024-02-26T08:17:05;5.00;;;2.20;;
11747;SDS011;5931;48.832;9.072;2024-02-26T08:19:31;3.00;;;2.40;;
11747;SDS011;5931;48.832;9.072;2024-02-26T08:21:56;3.73;;;2.10;;
11747;SDS011;5931;48.832;9.072;2024-02-26T08:24:22;6.63;;;2.27;;
11747;SDS011;5931;48.832;9.072;2024-02-26T08:26:48;2.60;;;2.10;;
11747;SDS011;5931;48.832;9.072;2024-02-26T08:29:14;3.93;;;2.53;;
11747;SDS011;5931;48.832;9.072;2024-02-26T08:31:40;4.30;;;2.80;;
11747;SDS011;5931;48.832;9.072;2024-02-26T08:34:06;2.50;;;2.00;;
11747;SDS011;5931;48.832;9.072;2024-02-26T08:36:32;4.80;;;3.13;;
11747;SDS011;5931;48.832;9.072;2024-02-26T08:38:59;3.80;;;2.90;;
11747;SDS011;5931;48.832;9.072;2024-02-26T08:41:25;4.83;;;3.13;;
11747;SDS011;5931;48.832;9.072;2024-02-26T08:43:51;5.77;;;2.97;;
11747;SDS011;5931;48.832;9.072;2024-02-26T08:46:16;5.20;;;3.30;;
11747;SDS011;5931;48.832;9.072;2024-02-26T08:48:43;5.57;;;3.40;;
11747;SDS011;5931;48.832;9.072;2024-02-26T08:51:09;5.83;;;3.40;;
11747;SDS011;5931;48.832;9.072;2024-02-26T08:53:35;4.47;;;2.50;;
11747;SDS011;5931;48.832;9.072;2024-02-26T08:56:01;5.40;;;3.67;;
11747;SDS011;5931;48.832;9.072;2024-02-26T08:58:27;5.37;;;3.30;;
11747;SDS011;5931;48.832;9.072;2024-02-26T09:00:54;6.00;;;2.97;;
11747;SDS011;5931;48.832;9.072;2024-02-26T09:03:20;7.27;;;3.60;;
11747;SDS011;5931;48.832;9.072;2024-02-26T09:05:46;4.77;;;3.00;;
11747;SDS011;5931;48.832;9.072;2024-02-26T09:08:12;6.90;;;2.73;;
11747;SDS011;5931;48.832;9.072;2024-02-26T09:10:38;4.97;;;3.03;;
11747;SDS011;5931;48.832;9.072;2024-02-26T09:13:04;4.10;;;3.23;;
11747;SDS011;5931;48.832;9.072;2024-02-26T09:15:30;4.60;;;3.00;;
11747;SDS011;5931;48.832;9.072;2024-02-26T09:17:56;3.80;;;2.93;;
11747;SDS011;5931;48.832;9.072;2024-02-26T09:20:22;4.50;;;3.50;;
11747;SDS011;5931;48.832;9.072;2024-02-26T09:22:48;6.70;;;3.27;;
11747;SDS011;5931;48.832;9.072;2024-02-26T09:25:16;4.73;;;3.60;;
11747;SDS011;5931;48.832;9.072;2024-02-26T09:27:42;5.80;;;3.53;;
11747;SDS011;5931;48.832;9.072;2024-02-26T09:30:12;7.47;;;3.17;;
11747;SDS011;5931;48.832;9.072;2024-02-26T09:32:38;3.40;;;2.80;;
11747;SDS011;5931;48.832;9.072;2024-02-26T09:35:07;3.90;;;2.97;;
11747;SDS011;5931;48.832;9.072;2024-02-26T09:37:33;8.33;;;3.47;;
11747;SDS011;5931;48.832;9.072;2024-02-26T09:39:59;5.10;;;2.80;;
11747;SDS011;5931;48.832;9.072;2024-02-26T09:42:26;3.23;;;2.50;;
11747;SDS011;5931;48.832;9.072;2024-02-26T09:44:55;4.13;;;2.97;;
11747;SDS011;5931;48.832;9.072;2024-02-26T09:47:24;3.70;;;2.90;;
11747;SDS011;5931;48.832;9.072;2024-02-26T09:49:53;4.27;;;2.93;;
11747;SDS011;5931;48.832;9.072;2024-02-26T09:52:21;5.17;;;3.30;;
11747;SDS011;5931;48.832;9.072;2024-02-26T09:54:48;4.87;;;3.30;;
11747;SDS011;5931;48.832;9.072;2024-02-26T09:57:15;5.93;;;2.60;;
11747;SDS011;5931;48.832;9.072;2024-02-26T09:59:42;3.10;;;2.30;;
11747;SDS011;5931;48.832;9.072;2024-02-26T10:02:11;3.57;;;3.10;;
11747;SDS011;5931;48.832;9.072;2024-02-26T10:04:42;3.40;;;2.70;;
11747;SDS011;5931;48.832;9.072;2024-02-26T10:07:09;4.60;;;3.07;;
11747;SDS011;5931;48.832;9.072;2024-02-26T10:09:36;5.70;;;3.23;;
11747;SDS011;5931;48.832;9.072;2024-02-26T10:12:03;4.47;;;3.20;;
11747;SDS011;5931;48.832;9.072;2024-02-26T10:14:30;4.50;;;3.40;;
11747;SDS011;5931;48.832;9.072;2024-02-26T10:16:56;4.60;;;3.10;;
11747;SDS011;5931;48.832;9.072;2024-02-26T10:19:26;5.23;;;3.00;;
11747;SDS011;5931;48.832;9.072;2024-02-26T10:21:56;3.03;;;2.73;;
11747;SDS011;5931;48.832;9.072;2024-02-26T10:24:23;3.33;;;3.00;;
11747;SDS011;5931;48.832;9.072;2024-02-26T10:26:50;3.53;;;2.90;;
11747;SDS011;5931;48.832;9.072;2024-02-26T10:29:17;5.43;;;3.17;;
11747;SDS011;5931;48.832;9.072;2024-02-26T10:31:44;3.70;;;2.73;;
11747;SDS011;5931;48.832;9.072;2024-02-26T10:34:10;3.97;;;3.07;;
11747;SDS011;5931;48.832;9.072;2024-02-26T10:36:36;6.13;;;3.40;;
11747;SDS011;5931;48.832;9.072;2024-02-26T10:39:03;2.67;;;2.47;;
11747;SDS011;5931;48.832;9.072;2024-02-26T10:41:30;8.63;;;4.90;;
11747;SDS011;5931;48.832;9.072;2024-02-26T10:43:58;5.23;;;2.70;;
11747;SDS011;5931;48.832;9.072;2024-02-26T10:46:25;5.93;;;2.73;;
11747;SDS011;5931;48.832;9.072;2024-02-26T10:48:51;4.37;;;3.07;;
11747;SDS011;5931;48.832;9.072;2024-02-26T10:51:27;4.10;;;2.80;;
11747;SDS011;5931;48.832;9.072;2024-02-26T10:53:57;3.00;;;2.63;;
11747;SDS011;5931;48.832;9.072;2024-02-26T10:56:29;3.83;;;3.07;;
11747;SDS011;5931;48.832;9.072;2024-02-26T10:58:58;4.50;;;3.00;;
11747;SDS011;5931;48.832;9.072;2024-02-26T11:01:24;2.47;;;2.20;;
11747;SDS011;5931;48.832;9.072;2024-02-26T11:03:52;3.07;;;2.50;;
11747;SDS011;5931;48.832;9.072;2024-02-26T11:06:22;2.60;;;2.13;;
11747;SDS011;5931;48.832;9.072;2024-02-26T11:08:51;3.60;;;2.67;;
11747;SDS011;5931;48.832;9.072;2024-02-26T11:11:18;2.93;;;2.13;;
11747;SDS011;5931;48.832;9.072;2024-02-26T11:13:46;2.70;;;2.13;;
11747;SDS011;5931;48.832;9.072;2024-02-26T11:16:22;2.23;;;1.90;;
11747;SDS011;5931;48.832;9.072;2024-02-26T11:18:48;2.90;;;1.97;;
11747;SDS011;5931;48.832;9.072;2024-02-26T11:21:20;3.90;;;2.13;;
11747;SDS011;5931;48.832;9.072;2024-02-26T11:23:56;3.20;;;2.20;;
11747;SDS011;5931;48.832;9.072;2024-02-26T11:26:22;3.97;;;2.80;;
11747;SDS011;5931;48.832;9.072;2024-02-26T11:28:50;3.27;;;2.13;;
11747;SDS011;5931;48.832;9.072;2024-02-26T11:31:18;1.93;;;1.70;;
11747;SDS011;5931;48.832;9.072;2024-02-26T11:33:51;2.27;;;1.83;;
11747;SDS011;5931;48.832;9.072;2024-02-26T11:36:21;3.23;;;2.40;;
11747;SDS011;5931;48.832;9.072;2024-02-26T11:38:49;3.30;;;2.30;;
11747;SDS011;5931;48.832;9.072;2024-02-26T11:41:17;3.40;;;2.20;;
11747;SDS011;5931;48.832;9.072;2024-02-26T11:43:50;2.60;;;2.20;;
11747;SDS011;5931;48.832;9.072;2024-02-26T11:49:02;4.50;;;2.10;;
11747;SDS011;5931;48.832;9.072;2024-02-26T11:51:50;2.17;;;1.80;;
11747;SDS011;5931;48.832;9.072;2024-02-26T11:54:39;3.60;;;2.07;;
11747;SDS011;5931;48.832;9.072;2024-02-26T11:57:04;3.07;;;1.90;;
11747;SDS011;5931;48.832;9.072;2024-02-26T11:59:44;4.03;;;1.70;;
11747;SDS011;5931;48.832;9.072;2024-02-26T12:02:10;2.13;;;1.73;;
11747;SDS011;5931;48.832;9.072;2024-02-26T12:04:38;1.90;;;1.47;;
11747;SDS011;5931;48.832;9.072;2024-02-26T12:07:04;2.90;;;1.80;;
11747;SDS011;5931;48.832;9.072;2024-02-26T12:09:31;2.67;;;1.50;;
11747;SDS011;5931;48.832;9.072;2024-02-26T12:12:05;2.60;;;1.90;;
11747;SDS011;5931;48.832;9.072;2024-02-26T12:15:08;2.23;;;1.83;;
11747;SDS011;5931;48.832;9.072;2024-02-26T12:17:27;1.50;;;1.30;;
11747;SDS011;5931;48.832;9.072;2024-02-26T12:19:53;2.20;;;1.63;;
11747;SDS011;5931;48.832;9.072;2024-02-26T12:22:19;2.20;;;1.63;;
11747;SDS011;5931;48.832;9.072;2024-02-26T12:24:45;3.93;;;1.80;;
11747;SDS011;5931;48.832;9.072;2024-02-26T12:27:11;2.17;;;1.40;;
11747;SDS011;5931;48.832;9.072;2024-02-26T12:29:37;2.23;;;1.60;;
11747;SDS011;5931;48.832;9.072;2024-02-26T12:32:04;3.03;;;1.80;;
11747;SDS011;5931;48.832;9.072;2024-02-26T12:34:30;1.93;;;1.40;;
11747;SDS011;5931;48.832;9.072;2024-02-26T12:36:57;2.23;;;1.60;;
11747;SDS011;5931;48.832;9.072;2024-02-26T12:39:23;1.50;;;1.30;;
11747;SDS011;5931;48.832;9.072;2024-02-26T12:41:49;1.80;;;1.50;;
11747;SDS011;5931;48.832;9.072;2024-02-26T12:44:18;2.17;;;1.63;;
11747;SDS011;5931;48.832;9.072;2024-02-26T12:46:50;2.10;;;1.50;;
11747;SDS011;5931;48.832;9.072;2024-02-26T12:49:24;2.13;;;1.40;;
11747;SDS011;5931;48.832;9.072;2024-02-26T12:51:50;2.60;;;1.77;;
11747;SDS011;5931;48.832;9.072;2024-02-26T12:54:16;5.00;;;1.60;;
11747;SDS011;5931;48.832;9.072;2024-02-26T12:56:42;1.77;;;1.43;;
11747;SDS011;5931;48.832;9.072;2024-02-26T12:59:08;4.20;;;2.20;;
11747;SDS011;5931;48.832;9.072;2024-02-26T13:01:35;2.20;;;1.70;;
11747;SDS011;5931;48.832;9.072;2024-02-26T13:04:01;2.83;;;2.23;;
11747;SDS011;5931;48.832;9.072;2024-02-26T13:06:31;2.63;;;1.70;;
11747;SDS011;5931;48.832;9.072;2024-02-26T13:08:59;2.90;;;1.60;;
11747;SDS011;5931;48.832;9.072;2024-02-26T13:11:25;1.70;;;1.30;;
11747;SDS011;5931;48.832;9.072;2024-02-26T13:13:51;1.70;;;1.60;;
11747;SDS011;5931;48.832;9.072;2024-02-26T13:16:17;1.90;;;1.67;;
11747;SDS011;5931;48.832;9.072;2024-02-26T13:18:42;1.87;;;1.30;;
11747;SDS011;5931;48.832;9.072;2024-02-26T13:21:09;2.23;;;1.90;;
11747;SDS011;5931;48.832;9.072;2024-02-26T13:23:39;1.67;;;1.20;;
11747;SDS011;5931;48.832;9.072;2024-02-26T13:26:06;1.80;;;1.40;;
11747;SDS011;5931;48.832;9.072;2024-02-26T13:28:33;3.03;;;1.50;;
11747;SDS011;5931;48.832;9.072;2024-02-26T13:31:00;1.80;;;1.70;;
11747;SDS011;5931;48.832;9.072;2024-02-26T13:33:27;1.87;;;1.47;;
11747;SDS011;5931;48.832;9.072;2024-02-26T13:35:54;1.40;;;1.20;;
11747;SDS011;5931;48.832;9.072;2024-02-26T13:38:21;1.70;;;1.53;;
11747;SDS011;5931;48.832;9.072;2024-02-26T13:40:47;4.23;;;1.83;;
11747;SDS011;5931;48.832;9.072;2024-02-26T13:43:13;2.30;;;1.83;;
11747;SDS011;5931;48.832;9.072;2024-02-26T13:45:39;2.60;;;1.30;;
11747;SDS011;5931;48.832;9.072;2024-02-26T13:48:05;1.50;;;1.20;;
11747;SDS011;5931;48.832;9.072;2024-02-26T13:50:32;1.80;;;1.30;;
11747;SDS011;5931;48.832;9.072;2024-02-26T13:52:58;2.27;;;1.30;;
11747;SDS011;5931;48.832;9.072;2024-02-26T13:55:27;1.23;;;1.10;;
11747;SDS011;5931;48.832;9.072;2024-02-26T13:57:55;1.20;;;0.97;;
11747;SDS011;5931;48.832;9.072;2024-02-26T14:00:22;1.30;;;1.17;;
11747;SDS011;5931;48.832;9.072;2024-02-26T14:02:49;1.40;;;1.30;;
11747;SDS011;5931;48.832;9.072;2024-02-26T14:05:15;1.97;;;1.40;;
11747;SDS011;5931;48.832;9.072;2024-02-26T14:07:41;2.80;;;1.80;;
11747;SDS011;5931;48.832;9.072;2024-02-26T14:10:08;2.10;;;1.57;;
11747;SDS011;5931;48.832;9.072;2024-02-26T14:12:36;2.53;;;1.40;;
11747;SDS011;5931;48.832;9.072;2024-02-26T14:15:03;2.17;;;1.50;;
11747;SDS011;5931;48.832;9.072;2024-02-26T14:17:30;1.83;;;1.50;;
11747;SDS011;5931;48.832;9.072;2024-02-26T14:19:56;1.20;;;1.10;;
11747;SDS011;5931;48.832;9.072;2024-02-26T14:22:21;1.80;;;1.43;;
11747;SDS011;5931;48.832;9.072;2024-02-26T14:24:47;1.80;;;1.30;;
11747;SDS011;5931;48.832;9.072;2024-02-26T14:27:13;1.13;;;1.00;;
11747;SDS011;5931;48.832;9.072;2024-02-26T14:29:44;1.43;;;1.10;;
11747;SDS011;5931;48.832;9.072;2024-02-26T14:32:09;3.20;;;1.10;;
11747;SDS011;5931;48.832;9.072;2024-02-26T14:34:35;1.90;;;1.10;;
11747;SDS011;5931;48.832;9.072;2024-02-26T14:37:02;1.53;;;1.20;;
11747;SDS011;5931;48.832;9.072;2024-02-26T14:39:29;1.20;;;1.10;;
11747;SDS011;5931;48.832;9.072;2024-02-26T14:41:57;1.47;;;1.27;;
11747;SDS011;5931;48.832;9.072;2024-02-26T14:44:23;1.70;;;1.27;;
11747;SDS011;5931;48.832;9.072;2024-02-26T14:46:52;1.60;;;1.20;;
11747;SDS011;5931;48.832;9.072;2024-02-26T14:49:18;1.60;;;1.00;;
11747;SDS011;5931;48.832;9.072;2024-02-26T14:51:44;1.50;;;1.20;;
11747;SDS011;5931;48.832;9.072;2024-02-26T14:54:11;1.10;;;0.90;;
11747;SDS011;5931;48.832;9.072;2024-02-26T14:56:37;1.47;;;1.20;;
11747;SDS011;5931;48.832;9.072;2024-02-26T14:59:03;1.33;;;1.10;;
11747;SDS011;5931;48.832;9.072;2024-02-26T15:01:28;1.40;;;1.10;;